sensor_id;sensor_type;location;lat;lon;timestamp;temperature;humidity
5588;DHT22;2816;49.778;9.986;2023-04-03T00:01:26;2.20;99.90
5588;DHT22;2816;49.778;9.986;2023-04-03T00:03:54;2.30;99.90
5588;DHT22;2816;49.778;9.986;2023-04-03T00:06:23;2.20;99.90
5588;DHT22;2816;49.778;9.986;2023-04-03T00:08:50;2.20;99.90
5588;DHT22;2816;49.778;9.986;2023-04-03T00:11:17;2.10;99.90
5588;DHT22;2816;49.778;9.986;2023-04-03T00:13:44;2.10;99.90
5588;DHT22;2816;49.778;9.986;2023-04-03T00:16:11;2.10;99.90
5588;DHT22;2816;49.778;9.986;2023-04-03T00:18:39;2.10;99.90
5588;DHT22;2816;49.778;9.986;2023-04-03T00:21:08;2.10;99.90
5588;DHT22;2816;49.778;9.986;2023-04-03T00:23:37;2.10;99.90
5588;DHT22;2816;49.778;9.986;2023-04-03T00:26:05;2.10;99.90
5588;DHT22;2816;49.778;9.986;2023-04-03T00:28:32;2.10;99.90
5588;DHT22;2816;49.778;9.986;2023-04-03T00:30:59;2.10;99.90
5588;DHT22;2816;49.778;9.986;2023-04-03T00:33:26;2.10;99.90
5588;DHT22;2816;49.778;9.986;2023-04-03T00:35:53;2.10;99.90
5588;DHT22;2816;49.778;9.986;2023-04-03T00:38:20;2.10;99.90
5588;DHT22;2816;49.778;9.986;2023-04-03T00:40:49;2.10;99.90
5588;DHT22;2816;49.778;9.986;2023-04-03T00:43:19;2.00;99.90
5588;DHT22;2816;49.778;9.986;2023-04-03T00:45:47;2.00;99.90
5588;DHT22;2816;49.778;9.986;2023-04-03T00:48:18;2.00;99.90
5588;DHT22;2816;49.778;9.986;2023-04-03T00:50:46;2.00;99.90
5588;DHT22;2816;49.778;9.986;2023-04-03T00:53:19;2.00;99.90
5588;DHT22;2816;49.778;9.986;2023-04-03T00:55:51;2.00;99.90
5588;DHT22;2816;49.778;9.986;2023-04-03T00:58:20;2.00;99.90
5588;DHT22;2816;49.778;9.986;2023-04-03T01:00:54;2.00;99.90
5588;DHT22;2816;49.778;9.986;2023-04-03T01:03:23;1.90;99.90
5588;DHT22;2816;49.778;9.986;2023-04-03T01:05:50;1.90;99.90
5588;DHT22;2816;49.778;9.986;2023-04-03T01:08:17;1.90;99.90
5588;DHT22;2816;49.778;9.986;2023-04-03T01:10:44;1.90;99.90
5588;DHT22;2816;49.778;9.986;2023-04-03T01:13:23;1.90;99.90
5588;DHT22;2816;49.778;9.986;2023-04-03T01:15:50;1.80;99.90
5588;DHT22;2816;49.778;9.986;2023-04-03T01:18:17;1.90;99.90
5588;DHT22;2816;49.778;9.986;2023-04-03T01:24:07;2.00;99.90
5588;DHT22;2816;49.778;9.986;2023-04-03T01:26:38;1.90;99.90
5588;DHT22;2816;49.778;9.986;2023-04-03T01:29:07;1.80;99.90
5588;DHT22;2816;49.778;9.986;2023-04-03T01:31:50;1.90;99.90
5588;DHT22;2816;49.778;9.986;2023-04-03T01:34:18;2.00;99.90
5588;DHT22;2816;49.778;9.986;2023-04-03T01:36:45;2.00;99.90
5588;DHT22;2816;49.778;9.986;2023-04-03T01:39:12;2.00;99.90
5588;DHT22;2816;49.778;9.986;2023-04-03T01:41:39;2.10;99.90
5588;DHT22;2816;49.778;9.986;2023-04-03T01:44:06;2.00;99.90
5588;DHT22;2816;49.778;9.986;2023-04-03T01:46:33;2.10;99.90
5588;DHT22;2816;49.778;9.986;2023-04-03T01:49:02;2.10;99.90
5588;DHT22;2816;49.778;9.986;2023-04-03T01:51:29;2.10;99.90
5588;DHT22;2816;49.778;9.986;2023-04-03T01:53:56;2.10;99.90
5588;DHT22;2816;49.778;9.986;2023-04-03T01:56:23;2.20;99.90
5588;DHT22;2816;49.778;9.986;2023-04-03T01:58:50;2.30;99.90
5588;DHT22;2816;49.778;9.986;2023-04-03T02:01:17;2.30;99.90
5588;DHT22;2816;49.778;9.986;2023-04-03T02:03:44;2.30;99.90
5588;DHT22;2816;49.778;9.986;2023-04-03T02:06:12;2.40;99.90
5588;DHT22;2816;49.778;9.986;2023-04-03T02:08:40;2.40;99.90
5588;DHT22;2816;49.778;9.986;2023-04-03T02:11:07;2.40;99.90
5588;DHT22;2816;49.778;9.986;2023-04-03T02:13:34;2.40;99.90
5588;DHT22;2816;49.778;9.986;2023-04-03T02:16:06;2.50;99.90
5588;DHT22;2816;49.778;9.986;2023-04-03T02:18:34;2.40;99.90
5588;DHT22;2816;49.778;9.986;2023-04-03T02:21:00;2.40;99.90
5588;DHT22;2816;49.778;9.986;2023-04-03T02:23:29;2.40;99.90
5588;DHT22;2816;49.778;9.986;2023-04-03T02:26:06;2.50;99.90
5588;DHT22;2816;49.778;9.986;2023-04-03T02:28:33;2.50;99.90
5588;DHT22;2816;49.778;9.986;2023-04-03T02:31:00;2.60;99.90
5588;DHT22;2816;49.778;9.986;2023-04-03T02:33:27;2.50;99.90
5588;DHT22;2816;49.778;9.986;2023-04-03T02:35:54;2.60;99.90
5588;DHT22;2816;49.778;9.986;2023-04-03T02:38:22;2.70;99.90
5588;DHT22;2816;49.778;9.986;2023-04-03T02:40:50;2.60;99.90
5588;DHT22;2816;49.778;9.986;2023-04-03T02:43:17;2.60;99.90
5588;DHT22;2816;49.778;9.986;2023-04-03T02:45:44;2.60;99.90
5588;DHT22;2816;49.778;9.986;2023-04-03T02:48:11;2.60;99.90
5588;DHT22;2816;49.778;9.986;2023-04-03T02:50:40;2.60;99.90
5588;DHT22;2816;49.778;9.986;2023-04-03T02:53:07;2.70;99.90
5588;DHT22;2816;49.778;9.986;2023-04-03T02:55:34;2.70;99.90
5588;DHT22;2816;49.778;9.986;2023-04-03T02:58:03;2.70;99.90
5588;DHT22;2816;49.778;9.986;2023-04-03T03:00:30;2.80;99.90
5588;DHT22;2816;49.778;9.986;2023-04-03T03:02:57;2.80;99.90
5588;DHT22;2816;49.778;9.986;2023-04-03T03:05:23;2.80;99.90
5588;DHT22;2816;49.778;9.986;2023-04-03T03:07:50;2.80;99.90
5588;DHT22;2816;49.778;9.986;2023-04-03T03:10:18;2.80;99.90
5588;DHT22;2816;49.778;9.986;2023-04-03T03:12:45;2.80;99.90
5588;DHT22;2816;49.778;9.986;2023-04-03T03:15:13;2.90;99.90
5588;DHT22;2816;49.778;9.986;2023-04-03T03:17:40;2.90;99.90
5588;DHT22;2816;49.778;9.986;2023-04-03T03:20:08;3.00;99.90
5588;DHT22;2816;49.778;9.986;2023-04-03T03:22:35;3.00;99.90
5588;DHT22;2816;49.778;9.986;2023-04-03T03:25:03;3.00;99.90
5588;DHT22;2816;49.778;9.986;2023-04-03T03:27:30;3.00;99.90
5588;DHT22;2816;49.778;9.986;2023-04-03T03:29:57;3.10;99.90
5588;DHT22;2816;49.778;9.986;2023-04-03T03:32:25;3.10;99.90
5588;DHT22;2816;49.778;9.986;2023-04-03T03:34:52;3.10;99.90
5588;DHT22;2816;49.778;9.986;2023-04-03T03:37:19;3.10;99.90
5588;DHT22;2816;49.778;9.986;2023-04-03T03:39:46;3.20;99.90
5588;DHT22;2816;49.778;9.986;2023-04-03T03:42:13;3.20;99.90
5588;DHT22;2816;49.778;9.986;2023-04-03T03:44:40;3.20;99.90
5588;DHT22;2816;49.778;9.986;2023-04-03T03:47:07;3.20;99.90
5588;DHT22;2816;49.778;9.986;2023-04-03T03:49:37;3.30;99.90
5588;DHT22;2816;49.778;9.986;2023-04-03T03:52:04;3.20;99.90
5588;DHT22;2816;49.778;9.986;2023-04-03T03:54:31;3.20;99.90
5588;DHT22;2816;49.778;9.986;2023-04-03T03:56:58;3.20;99.90
5588;DHT22;2816;49.778;9.986;2023-04-03T03:59:25;3.20;99.90
5588;DHT22;2816;49.778;9.986;2023-04-03T04:01:51;3.30;99.90
5588;DHT22;2816;49.778;9.986;2023-04-03T04:04:19;3.30;99.90
5588;DHT22;2816;49.778;9.986;2023-04-03T04:06:47;3.30;99.90
5588;DHT22;2816;49.778;9.986;2023-04-03T04:09:14;3.30;99.90
5588;DHT22;2816;49.778;9.986;2023-04-03T04:11:41;3.30;99.90
5588;DHT22;2816;49.778;9.986;2023-04-03T04:14:07;3.20;99.90
5588;DHT22;2816;49.778;9.986;2023-04-03T04:16:36;3.20;99.90
5588;DHT22;2816;49.778;9.986;2023-04-03T04:19:03;3.20;99.90
5588;DHT22;2816;49.778;9.986;2023-04-03T04:21:29;3.30;99.90
5588;DHT22;2816;49.778;9.986;2023-04-03T04:23:58;3.30;99.90
5588;DHT22;2816;49.778;9.986;2023-04-03T04:26:25;3.30;99.90
5588;DHT22;2816;49.778;9.986;2023-04-03T04:28:51;3.30;99.90
5588;DHT22;2816;49.778;9.986;2023-04-03T04:31:18;3.20;99.90
5588;DHT22;2816;49.778;9.986;2023-04-03T04:33:45;3.10;99.90
5588;DHT22;2816;49.778;9.986;2023-04-03T04:36:12;3.20;99.90
5588;DHT22;2816;49.778;9.986;2023-04-03T04:38:40;3.20;99.90
5588;DHT22;2816;49.778;9.986;2023-04-03T04:41:08;3.20;99.90
5588;DHT22;2816;49.778;9.986;2023-04-03T04:43:35;3.30;99.90
5588;DHT22;2816;49.778;9.986;2023-04-03T04:46:03;3.20;99.90
5588;DHT22;2816;49.778;9.986;2023-04-03T04:48:30;3.20;99.90
5588;DHT22;2816;49.778;9.986;2023-04-03T04:50:57;3.20;99.90
5588;DHT22;2816;49.778;9.986;2023-04-03T04:53:24;3.10;99.90
5588;DHT22;2816;49.778;9.986;2023-04-03T04:55:51;2.90;99.90
5588;DHT22;2816;49.778;9.986;2023-04-03T04:58:20;2.90;99.90
5588;DHT22;2816;49.778;9.986;2023-04-03T05:00:47;2.80;99.90
5588;DHT22;2816;49.778;9.986;2023-04-03T05:03:14;2.90;99.90
5588;DHT22;2816;49.778;9.986;2023-04-03T05:05:41;2.90;99.90
5588;DHT22;2816;49.778;9.986;2023-04-03T05:08:08;2.80;99.90
5588;DHT22;2816;49.778;9.986;2023-04-03T05:10:35;2.80;99.90
5588;DHT22;2816;49.778;9.986;2023-04-03T05:13:01;2.80;99.90
5588;DHT22;2816;49.778;9.986;2023-04-03T05:15:30;2.80;99.90
5588;DHT22;2816;49.778;9.986;2023-04-03T05:17:57;2.70;99.90
5588;DHT22;2816;49.778;9.986;2023-04-03T05:20:24;2.60;99.90
5588;DHT22;2816;49.778;9.986;2023-04-03T05:22:50;2.70;99.90
5588;DHT22;2816;49.778;9.986;2023-04-03T05:25:17;2.70;99.90
5588;DHT22;2816;49.778;9.986;2023-04-03T05:27:44;2.70;99.90
5588;DHT22;2816;49.778;9.986;2023-04-03T05:30:12;2.70;99.90
5588;DHT22;2816;49.778;9.986;2023-04-03T05:32:40;2.50;99.90
5588;DHT22;2816;49.778;9.986;2023-04-03T05:35:08;2.50;99.90
5588;DHT22;2816;49.778;9.986;2023-04-03T05:37:35;2.60;99.90
5588;DHT22;2816;49.778;9.986;2023-04-03T05:40:03;2.50;99.90
5588;DHT22;2816;49.778;9.986;2023-04-03T05:42:31;2.40;99.90
5588;DHT22;2816;49.778;9.986;2023-04-03T05:44:57;2.40;99.90
5588;DHT22;2816;49.778;9.986;2023-04-03T05:47:25;2.50;99.90
5588;DHT22;2816;49.778;9.986;2023-04-03T05:49:53;2.40;99.90
5588;DHT22;2816;49.778;9.986;2023-04-03T05:52:23;2.30;99.90
5588;DHT22;2816;49.778;9.986;2023-04-03T05:54:49;2.20;99.90
5588;DHT22;2816;49.778;9.986;2023-04-03T05:57:16;2.30;99.90
5588;DHT22;2816;49.778;9.986;2023-04-03T05:59:44;2.40;99.90
5588;DHT22;2816;49.778;9.986;2023-04-03T06:02:12;2.50;99.90
5588;DHT22;2816;49.778;9.986;2023-04-03T06:04:39;2.30;99.90
5588;DHT22;2816;49.778;9.986;2023-04-03T06:07:10;2.50;99.90
5588;DHT22;2816;49.778;9.986;2023-04-03T06:09:38;2.40;99.90
5588;DHT22;2816;49.778;9.986;2023-04-03T06:12:05;2.60;99.90
5588;DHT22;2816;49.778;9.986;2023-04-03T06:14:32;2.60;99.90
5588;DHT22;2816;49.778;9.986;2023-04-03T06:16:59;2.50;99.90
5588;DHT22;2816;49.778;9.986;2023-04-03T06:19:27;2.50;99.90
5588;DHT22;2816;49.778;9.986;2023-04-03T06:21:54;2.50;99.90
5588;DHT22;2816;49.778;9.986;2023-04-03T06:24:22;2.40;99.90
5588;DHT22;2816;49.778;9.986;2023-04-03T06:26:51;2.50;99.90
5588;DHT22;2816;49.778;9.986;2023-04-03T06:29:18;2.40;99.90
5588;DHT22;2816;49.778;9.986;2023-04-03T06:31:45;2.50;99.90
5588;DHT22;2816;49.778;9.986;2023-04-03T06:34:12;2.50;99.90
5588;DHT22;2816;49.778;9.986;2023-04-03T06:36:41;2.70;99.90
5588;DHT22;2816;49.778;9.986;2023-04-03T06:39:09;2.50;99.90
5588;DHT22;2816;49.778;9.986;2023-04-03T06:41:39;2.50;99.90
5588;DHT22;2816;49.778;9.986;2023-04-03T06:44:06;2.50;99.90
5588;DHT22;2816;49.778;9.986;2023-04-03T06:46:37;2.60;99.90
5588;DHT22;2816;49.778;9.986;2023-04-03T06:49:04;2.60;99.90
5588;DHT22;2816;49.778;9.986;2023-04-03T06:51:33;2.70;99.90
5588;DHT22;2816;49.778;9.986;2023-04-03T06:54:01;2.70;99.90
5588;DHT22;2816;49.778;9.986;2023-04-03T06:56:29;2.60;99.90
5588;DHT22;2816;49.778;9.986;2023-04-03T06:58:57;2.70;99.90
5588;DHT22;2816;49.778;9.986;2023-04-03T07:01:25;2.90;99.90
5588;DHT22;2816;49.778;9.986;2023-04-03T07:03:53;2.80;99.90
5588;DHT22;2816;49.778;9.986;2023-04-03T07:06:20;2.80;99.90
5588;DHT22;2816;49.778;9.986;2023-04-03T07:08:48;3.00;99.90
5588;DHT22;2816;49.778;9.986;2023-04-03T07:11:15;2.90;99.90
5588;DHT22;2816;49.778;9.986;2023-04-03T07:13:42;3.00;99.90
5588;DHT22;2816;49.778;9.986;2023-04-03T07:16:10;3.00;99.90
5588;DHT22;2816;49.778;9.986;2023-04-03T07:18:38;3.00;99.90
5588;DHT22;2816;49.778;9.986;2023-04-03T07:21:05;3.10;99.90
5588;DHT22;2816;49.778;9.986;2023-04-03T07:23:32;3.10;99.90
5588;DHT22;2816;49.778;9.986;2023-04-03T07:25:59;3.00;99.90
5588;DHT22;2816;49.778;9.986;2023-04-03T07:28:27;3.00;99.90
5588;DHT22;2816;49.778;9.986;2023-04-03T07:31:00;3.10;99.90
5588;DHT22;2816;49.778;9.986;2023-04-03T07:33:29;3.30;99.90
5588;DHT22;2816;49.778;9.986;2023-04-03T07:35:56;3.30;99.90
5588;DHT22;2816;49.778;9.986;2023-04-03T07:38:24;3.40;99.90
5588;DHT22;2816;49.778;9.986;2023-04-03T07:40:51;3.40;99.90
5588;DHT22;2816;49.778;9.986;2023-04-03T07:43:20;3.40;99.90
5588;DHT22;2816;49.778;9.986;2023-04-03T07:45:48;3.40;99.90
5588;DHT22;2816;49.778;9.986;2023-04-03T07:48:17;3.50;99.90
5588;DHT22;2816;49.778;9.986;2023-04-03T07:50:45;3.50;99.90
5588;DHT22;2816;49.778;9.986;2023-04-03T07:53:12;3.40;99.90
5588;DHT22;2816;49.778;9.986;2023-04-03T07:55:39;3.50;99.90
5588;DHT22;2816;49.778;9.986;2023-04-03T07:58:10;3.60;99.90
5588;DHT22;2816;49.778;9.986;2023-04-03T08:00:38;3.60;99.90
5588;DHT22;2816;49.778;9.986;2023-04-03T08:03:06;3.60;99.90
5588;DHT22;2816;49.778;9.986;2023-04-03T08:05:36;3.70;99.90
5588;DHT22;2816;49.778;9.986;2023-04-03T08:08:06;3.80;99.90
5588;DHT22;2816;49.778;9.986;2023-04-03T08:10:34;3.80;99.90
5588;DHT22;2816;49.778;9.986;2023-04-03T08:13:02;3.90;99.90
5588;DHT22;2816;49.778;9.986;2023-04-03T08:15:30;4.00;99.90
5588;DHT22;2816;49.778;9.986;2023-04-03T08:17:57;4.00;99.90
5588;DHT22;2816;49.778;9.986;2023-04-03T08:20:25;4.20;99.90
5588;DHT22;2816;49.778;9.986;2023-04-03T08:22:52;4.40;99.90
5588;DHT22;2816;49.778;9.986;2023-04-03T08:25:20;4.60;99.90
5588;DHT22;2816;49.778;9.986;2023-04-03T08:27:47;4.70;99.90
5588;DHT22;2816;49.778;9.986;2023-04-03T08:30:14;4.60;99.90
5588;DHT22;2816;49.778;9.986;2023-04-03T08:32:42;4.70;99.90
5588;DHT22;2816;49.778;9.986;2023-04-03T08:35:10;4.80;99.90
5588;DHT22;2816;49.778;9.986;2023-04-03T08:37:37;4.80;99.90
5588;DHT22;2816;49.778;9.986;2023-04-03T08:40:06;4.70;99.90
5588;DHT22;2816;49.778;9.986;2023-04-03T08:42:45;4.60;99.90
5588;DHT22;2816;49.778;9.986;2023-04-03T08:45:16;4.90;99.90
5588;DHT22;2816;49.778;9.986;2023-04-03T08:47:48;4.80;99.90
5588;DHT22;2816;49.778;9.986;2023-04-03T08:50:18;5.00;99.90
5588;DHT22;2816;49.778;9.986;2023-04-03T08:52:48;5.10;99.90
5588;DHT22;2816;49.778;9.986;2023-04-03T08:55:22;5.40;99.90
5588;DHT22;2816;49.778;9.986;2023-04-03T08:57:58;5.50;99.90
5588;DHT22;2816;49.778;9.986;2023-04-03T09:00:29;5.60;99.90
5588;DHT22;2816;49.778;9.986;2023-04-03T09:02:57;5.60;99.90
5588;DHT22;2816;49.778;9.986;2023-04-03T09:05:39;5.60;99.90
5588;DHT22;2816;49.778;9.986;2023-04-03T09:08:14;5.70;99.90
5588;DHT22;2816;49.778;9.986;2023-04-03T09:10:44;5.60;99.90
5588;DHT22;2816;49.778;9.986;2023-04-03T09:13:23;5.50;99.90
5588;DHT22;2816;49.778;9.986;2023-04-03T09:15:53;5.50;99.90
5588;DHT22;2816;49.778;9.986;2023-04-03T09:18:22;5.60;99.90
5588;DHT22;2816;49.778;9.986;2023-04-03T09:20:58;5.80;99.90
5588;DHT22;2816;49.778;9.986;2023-04-03T09:23:29;5.80;99.90
5588;DHT22;2816;49.778;9.986;2023-04-03T09:26:02;5.50;99.90
5588;DHT22;2816;49.778;9.986;2023-04-03T09:28:35;5.60;99.90
5588;DHT22;2816;49.778;9.986;2023-04-03T09:31:16;5.40;99.90
5588;DHT22;2816;49.778;9.986;2023-04-03T09:33:44;5.70;99.90
5588;DHT22;2816;49.778;9.986;2023-04-03T09:36:12;5.90;99.90
5588;DHT22;2816;49.778;9.986;2023-04-03T09:38:39;6.20;99.90
5588;DHT22;2816;49.778;9.986;2023-04-03T09:41:13;6.30;99.90
5588;DHT22;2816;49.778;9.986;2023-04-03T09:43:51;6.20;99.90
5588;DHT22;2816;49.778;9.986;2023-04-03T09:46:26;6.00;99.90
5588;DHT22;2816;49.778;9.986;2023-04-03T09:48:58;6.30;99.90
5588;DHT22;2816;49.778;9.986;2023-04-03T09:51:26;6.30;99.90
5588;DHT22;2816;49.778;9.986;2023-04-03T09:53:54;6.20;99.90
5588;DHT22;2816;49.778;9.986;2023-04-03T09:56:24;6.40;99.90
5588;DHT22;2816;49.778;9.986;2023-04-03T09:59:07;6.00;99.60
5588;DHT22;2816;49.778;9.986;2023-04-03T10:01:36;6.20;99.90
5588;DHT22;2816;49.778;9.986;2023-04-03T10:04:07;6.20;99.90
5588;DHT22;2816;49.778;9.986;2023-04-03T10:06:37;6.20;99.90
5588;DHT22;2816;49.778;9.986;2023-04-03T10:09:15;6.40;99.90
5588;DHT22;2816;49.778;9.986;2023-04-03T10:11:58;6.40;99.90
5588;DHT22;2816;49.778;9.986;2023-04-03T10:14:27;6.40;99.90
5588;DHT22;2816;49.778;9.986;2023-04-03T10:16:59;6.50;99.90
5588;DHT22;2816;49.778;9.986;2023-04-03T10:19:35;6.40;99.90
5588;DHT22;2816;49.778;9.986;2023-04-03T10:22:10;6.50;99.70
5588;DHT22;2816;49.778;9.986;2023-04-03T10:24:59;6.60;99.60
5588;DHT22;2816;49.778;9.986;2023-04-03T10:27:36;6.60;98.50
5588;DHT22;2816;49.778;9.986;2023-04-03T10:30:20;6.80;99.00
5588;DHT22;2816;49.778;9.986;2023-04-03T10:32:57;7.00;98.40
5588;DHT22;2816;49.778;9.986;2023-04-03T10:35:38;7.10;97.80
5588;DHT22;2816;49.778;9.986;2023-04-03T10:38:14;6.90;98.70
5588;DHT22;2816;49.778;9.986;2023-04-03T10:40:49;6.90;96.10
5588;DHT22;2816;49.778;9.986;2023-04-03T10:43:25;7.00;95.50
5588;DHT22;2816;49.778;9.986;2023-04-03T10:46:02;7.10;97.50
5588;DHT22;2816;49.778;9.986;2023-04-03T10:48:40;7.20;96.40
5588;DHT22;2816;49.778;9.986;2023-04-03T10:51:20;7.40;96.30
5588;DHT22;2816;49.778;9.986;2023-04-03T10:53:55;7.30;94.90
5588;DHT22;2816;49.778;9.986;2023-04-03T10:56:29;7.10;95.30
5588;DHT22;2816;49.778;9.986;2023-04-03T10:59:00;6.70;94.00
5588;DHT22;2816;49.778;9.986;2023-04-03T11:01:33;7.10;96.90
5588;DHT22;2816;49.778;9.986;2023-04-03T11:04:02;7.70;95.30
5588;DHT22;2816;49.778;9.986;2023-04-03T11:06:34;7.90;95.10
5588;DHT22;2816;49.778;9.986;2023-04-03T11:09:10;7.90;95.50
5588;DHT22;2816;49.778;9.986;2023-04-03T11:11:39;8.00;95.70
5588;DHT22;2816;49.778;9.986;2023-04-03T11:14:13;7.60;93.00
5588;DHT22;2816;49.778;9.986;2023-04-03T11:16:46;7.20;92.80
5588;DHT22;2816;49.778;9.986;2023-04-03T11:19:18;7.60;94.20
5588;DHT22;2816;49.778;9.986;2023-04-03T11:21:52;7.80;94.90
5588;DHT22;2816;49.778;9.986;2023-04-03T11:24:24;8.20;94.10
5588;DHT22;2816;49.778;9.986;2023-04-03T11:26:54;8.50;94.20
5588;DHT22;2816;49.778;9.986;2023-04-03T11:29:24;8.70;93.80
5588;DHT22;2816;49.778;9.986;2023-04-03T11:32:09;8.50;93.10
5588;DHT22;2816;49.778;9.986;2023-04-03T11:34:41;8.20;93.00
5588;DHT22;2816;49.778;9.986;2023-04-03T11:37:15;8.50;93.00
5588;DHT22;2816;49.778;9.986;2023-04-03T11:39:51;8.40;93.20
5588;DHT22;2816;49.778;9.986;2023-04-03T11:42:29;8.10;93.00
5588;DHT22;2816;49.778;9.986;2023-04-03T11:45:31;8.50;93.00
5588;DHT22;2816;49.778;9.986;2023-04-03T11:48:02;8.30;91.10
5588;DHT22;2816;49.778;9.986;2023-04-03T11:50:44;7.90;92.30
5588;DHT22;2816;49.778;9.986;2023-04-03T11:53:33;8.30;92.10
5588;DHT22;2816;49.778;9.986;2023-04-03T11:59:22;8.80;91.40
5588;DHT22;2816;49.778;9.986;2023-04-03T12:01:50;8.90;91.40
5588;DHT22;2816;49.778;9.986;2023-04-03T12:04:20;9.20;89.80
5588;DHT22;2816;49.778;9.986;2023-04-03T12:10:13;8.50;86.20
5588;DHT22;2816;49.778;9.986;2023-04-03T12:12:42;8.70;90.30
5588;DHT22;2816;49.778;9.986;2023-04-03T12:15:45;9.20;89.10
5588;DHT22;2816;49.778;9.986;2023-04-03T12:18:57;9.20;87.50
5588;DHT22;2816;49.778;9.986;2023-04-03T12:24:28;9.20;83.00
5588;DHT22;2816;49.778;9.986;2023-04-03T12:27:19;9.10;84.50
5588;DHT22;2816;49.778;9.986;2023-04-03T12:29:51;9.30;85.40
5588;DHT22;2816;49.778;9.986;2023-04-03T12:32:29;9.40;87.90
5588;DHT22;2816;49.778;9.986;2023-04-03T12:35:12;8.90;82.60
5588;DHT22;2816;49.778;9.986;2023-04-03T12:37:57;9.10;88.40
5588;DHT22;2816;49.778;9.986;2023-04-03T12:40:33;9.70;86.40
5588;DHT22;2816;49.778;9.986;2023-04-03T12:43:22;9.70;81.10
5588;DHT22;2816;49.778;9.986;2023-04-03T12:45:56;9.60;79.60
5588;DHT22;2816;49.778;9.986;2023-04-03T12:48:27;9.50;80.70
5588;DHT22;2816;49.778;9.986;2023-04-03T12:50:56;9.20;79.70
5588;DHT22;2816;49.778;9.986;2023-04-03T12:53:26;9.90;81.90
5588;DHT22;2816;49.778;9.986;2023-04-03T12:55:58;10.10;83.00
5588;DHT22;2816;49.778;9.986;2023-04-03T12:58:44;9.90;82.60
5588;DHT22;2816;49.778;9.986;2023-04-03T13:01:13;10.00;80.90
5588;DHT22;2816;49.778;9.986;2023-04-03T13:03:44;10.40;77.70
5588;DHT22;2816;49.778;9.986;2023-04-03T13:06:17;10.60;78.80
5588;DHT22;2816;49.778;9.986;2023-04-03T13:08:49;10.40;77.50
5588;DHT22;2816;49.778;9.986;2023-04-03T13:11:18;10.30;77.10
5588;DHT22;2816;49.778;9.986;2023-04-03T13:13:57;10.50;76.60
5588;DHT22;2816;49.778;9.986;2023-04-03T13:16:25;10.20;75.60
5588;DHT22;2816;49.778;9.986;2023-04-03T13:18:53;10.10;77.00
5588;DHT22;2816;49.778;9.986;2023-04-03T13:21:23;10.40;77.70
5588;DHT22;2816;49.778;9.986;2023-04-03T13:23:52;10.30;77.00
5588;DHT22;2816;49.778;9.986;2023-04-03T13:26:25;10.70;77.60
5588;DHT22;2816;49.778;9.986;2023-04-03T13:28:54;11.00;75.80
5588;DHT22;2816;49.778;9.986;2023-04-03T13:31:26;10.30;75.10
5588;DHT22;2816;49.778;9.986;2023-04-03T13:33:57;10.70;74.90
5588;DHT22;2816;49.778;9.986;2023-04-03T13:36:27;10.90;74.00
5588;DHT22;2816;49.778;9.986;2023-04-03T13:39:00;10.90;72.80
5588;DHT22;2816;49.778;9.986;2023-04-03T13:41:32;10.90;74.30
5588;DHT22;2816;49.778;9.986;2023-04-03T13:44:15;10.40;72.10
5588;DHT22;2816;49.778;9.986;2023-04-03T13:46:42;9.80;72.70
5588;DHT22;2816;49.778;9.986;2023-04-03T13:49:19;10.20;76.10
5588;DHT22;2816;49.778;9.986;2023-04-03T13:51:46;10.90;78.00
5588;DHT22;2816;49.778;9.986;2023-04-03T13:54:19;10.60;73.80
5588;DHT22;2816;49.778;9.986;2023-04-03T13:56:53;10.60;67.20
5588;DHT22;2816;49.778;9.986;2023-04-03T13:59:24;10.70;73.20
5588;DHT22;2816;49.778;9.986;2023-04-03T14:01:55;10.80;73.00
5588;DHT22;2816;49.778;9.986;2023-04-03T14:04:44;11.30;69.80
5588;DHT22;2816;49.778;9.986;2023-04-03T14:07:11;11.40;69.60
5588;DHT22;2816;49.778;9.986;2023-04-03T14:09:38;10.90;74.70
5588;DHT22;2816;49.778;9.986;2023-04-03T14:12:11;10.50;75.50
5588;DHT22;2816;49.778;9.986;2023-04-03T14:14:38;10.80;75.20
5588;DHT22;2816;49.778;9.986;2023-04-03T14:17:14;10.50;76.50
5588;DHT22;2816;49.778;9.986;2023-04-03T14:19:42;11.00;73.20
5588;DHT22;2816;49.778;9.986;2023-04-03T14:22:15;10.60;72.30
5588;DHT22;2816;49.778;9.986;2023-04-03T14:24:42;10.80;73.50
5588;DHT22;2816;49.778;9.986;2023-04-03T14:27:17;11.10;75.40
5588;DHT22;2816;49.778;9.986;2023-04-03T14:29:45;11.50;73.40
5588;DHT22;2816;49.778;9.986;2023-04-03T14:32:12;11.70;71.20
5588;DHT22;2816;49.778;9.986;2023-04-03T14:34:41;11.00;72.10
5588;DHT22;2816;49.778;9.986;2023-04-03T14:37:11;11.10;72.00
5588;DHT22;2816;49.778;9.986;2023-04-03T14:39:38;11.30;73.10
5588;DHT22;2816;49.778;9.986;2023-04-03T14:42:09;11.60;71.40
5588;DHT22;2816;49.778;9.986;2023-04-03T14:44:39;11.30;71.50
5588;DHT22;2816;49.778;9.986;2023-04-03T14:47:10;11.10;73.30
5588;DHT22;2816;49.778;9.986;2023-04-03T14:49:37;11.00;72.80
5588;DHT22;2816;49.778;9.986;2023-04-03T14:52:04;11.30;72.90
5588;DHT22;2816;49.778;9.986;2023-04-03T14:54:31;11.00;72.10
5588;DHT22;2816;49.778;9.986;2023-04-03T14:56:59;11.30;74.00
5588;DHT22;2816;49.778;9.986;2023-04-03T14:59:28;11.00;71.70
5588;DHT22;2816;49.778;9.986;2023-04-03T15:01:56;11.20;73.90
5588;DHT22;2816;49.778;9.986;2023-04-03T15:04:23;10.90;70.10
5588;DHT22;2816;49.778;9.986;2023-04-03T15:06:51;11.10;72.30
5588;DHT22;2816;49.778;9.986;2023-04-03T15:09:20;11.10;70.60
5588;DHT22;2816;49.778;9.986;2023-04-03T15:11:48;10.60;70.10
5588;DHT22;2816;49.778;9.986;2023-04-03T15:14:16;10.60;74.00
5588;DHT22;2816;49.778;9.986;2023-04-03T15:16:43;11.00;73.30
5588;DHT22;2816;49.778;9.986;2023-04-03T15:19:11;11.20;72.70
5588;DHT22;2816;49.778;9.986;2023-04-03T15:21:39;10.70;71.70
5588;DHT22;2816;49.778;9.986;2023-04-03T15:24:08;10.70;71.80
5588;DHT22;2816;49.778;9.986;2023-04-03T15:26:35;10.50;71.10
5588;DHT22;2816;49.778;9.986;2023-04-03T15:29:03;10.90;74.20
5588;DHT22;2816;49.778;9.986;2023-04-03T15:31:32;11.10;71.10
5588;DHT22;2816;49.778;9.986;2023-04-03T15:33:59;11.50;72.90
5588;DHT22;2816;49.778;9.986;2023-04-03T15:36:27;11.20;72.00
5588;DHT22;2816;49.778;9.986;2023-04-03T15:38:54;11.10;72.00
5588;DHT22;2816;49.778;9.986;2023-04-03T15:41:21;11.20;73.90
5588;DHT22;2816;49.778;9.986;2023-04-03T15:43:48;11.30;72.10
5588;DHT22;2816;49.778;9.986;2023-04-03T15:46:15;11.30;70.80
5588;DHT22;2816;49.778;9.986;2023-04-03T15:48:42;10.90;70.40
5588;DHT22;2816;49.778;9.986;2023-04-03T15:51:10;11.30;72.20
5588;DHT22;2816;49.778;9.986;2023-04-03T15:53:38;10.90;71.10
5588;DHT22;2816;49.778;9.986;2023-04-03T15:56:05;10.70;71.50
5588;DHT22;2816;49.778;9.986;2023-04-03T15:58:33;11.20;73.30
5588;DHT22;2816;49.778;9.986;2023-04-03T16:01:01;11.40;71.90
5588;DHT22;2816;49.778;9.986;2023-04-03T16:03:28;11.10;71.50
5588;DHT22;2816;49.778;9.986;2023-04-03T16:05:55;10.90;70.00
5588;DHT22;2816;49.778;9.986;2023-04-03T16:08:22;11.10;70.20
5588;DHT22;2816;49.778;9.986;2023-04-03T16:10:51;10.80;72.30
5588;DHT22;2816;49.778;9.986;2023-04-03T16:13:18;10.70;71.80
5588;DHT22;2816;49.778;9.986;2023-04-03T16:15:45;10.60;72.60
5588;DHT22;2816;49.778;9.986;2023-04-03T16:18:14;10.80;72.70
5588;DHT22;2816;49.778;9.986;2023-04-03T16:20:41;10.30;74.80
5588;DHT22;2816;49.778;9.986;2023-04-03T16:23:09;10.20;75.90
5588;DHT22;2816;49.778;9.986;2023-04-03T16:25:36;10.00;73.20
5588;DHT22;2816;49.778;9.986;2023-04-03T16:28:04;9.70;72.30
5588;DHT22;2816;49.778;9.986;2023-04-03T16:30:32;9.90;73.80
5588;DHT22;2816;49.778;9.986;2023-04-03T16:32:59;9.70;73.30
5588;DHT22;2816;49.778;9.986;2023-04-03T16:35:26;9.40;72.50
5588;DHT22;2816;49.778;9.986;2023-04-03T16:37:54;9.40;72.40
5588;DHT22;2816;49.778;9.986;2023-04-03T16:40:20;9.40;72.40
5588;DHT22;2816;49.778;9.986;2023-04-03T16:42:47;8.90;77.50
5588;DHT22;2816;49.778;9.986;2023-04-03T16:45:16;8.80;75.20